離陸時の景色が最高。7月に乗って正解! - ジェットスター・ジャパン クチコミ

メンバー評価
国|コード
日本 | IATA : GK | ICAO : JJP
ホームページ
ジェットスター・ジャパン 日本語あり
福岡空港 - Fukuoka Airport [FUK/RJFF]で撮影された福岡空港 - Fukuoka Airport [FUK/RJFF]の航空機写真

Copyright © ゆう改めてさん

離陸時の景色が最高。7月に乗って正解!

航空会社:
ジェットスター・ジャパン
便名:
GK378
エコノミー
搭乗日:
2019/07
路線:
下地島 → 関西(大阪)
機体記号:
JA08JJ
機材:
Airbus A320-232
総評4
4ッ星
機内食・ドリンク
無評価
座席(シート)
2ッ星
機内スタッフ
4ッ星
エンターティメント
無評価
トイレ・洗面台
無評価
機材コンディション
5ッ星
空港サービス
4ッ星
口コミ投稿者:

アクセス数:226 |  投稿日:

このエントリーをはてなブックマークに追加

搭乗写真

総評

YouTube 下地島空港からの離陸・絶景の島々を眺める/ジェットスター下地島→関空(GK378便JA08JJ)

関空-下地島線が開設されて、宮古島とセットで観光。座席指定込で9950円で購入。9月だともう少し安い便もありましたが、18:55発ということで離陸時の機窓が見られるのは日の長い7月なのと、ちょうど日の合う関空-宮古のANA便がたまたまUA特典航空券であり衝動買い。離陸してからどういう経路かは全然勉強していなかったが、17離陸で180度ターンして伊良部大橋や宮古島が綺麗に見えて満足。
・レンタカーで乗り付けたが、空港のレンタカースペースに停めておけばOK。便利でよい。
・今年からリニューアルオープンということで空港はきれい・お洒落な感じ。悪い点といえば、チェックインの建物に無料で座れそうな席がない。
・搭乗率は80%程度?隣空席
・後ろの方の列で膝がどうとかでお怒りのおばちゃんがいたwジェットスターあるあるだけど、そこは諦めよう...
・関空は大雨でバス降機。
・久々にLCCに乗って、前にリクライニング全開にされたが、沖縄くらいだったら全然平気だなと

フライトログ

搭乗の詳細データです。

座席番号 6F
出発予定時刻 18:55
出発時刻 19:02
飛行高度 37000ft
飛行速度 525kt
到着予定時刻 21:15
到着時刻 21:07
予定飛行時間 2:20
出発空港 天気・気温 Fine
離陸滑走路 17
離陸時刻 19:12
到着空港 天気・気温 Rain, 23℃
到着空港 風速・風向 5kt, 350
到着ゲート・スポット 109
着陸滑走路 06L
着陸時刻 21:01
メモ RJBB 141200Z 35005KT 4500 -SHRA BR FEW001 BKN006 BKN012 23/23 Q1002 NOSIG

コメントする

コメントを書くには、ログインが必要です。

Recommend おすすめコンテンツ

ジェットスター・ジャパンの搭乗レビューを投稿・公開しませんか?

FlyTeam(フライチーム)では、搭乗レビューを投稿・公開するブログ機能を提供しています。

詳しくは >>

このページを共有する

このエントリーをはてなブックマークに追加